Time;durP1;ratioP1;P1;durP2;ratioP2;P2;SDS_P1;SDS_P2;PMS_P1;PMS_P2;Temp;Humidity;BMP_temperature;BMP_pressure;BME280_temperature;BME280_humidity;BME280_pressure;Samples;Min_cycle;Max_cycle;Signal;HPM_P1;HPM_P2
2022/07/08 00:00:53;;;;;;;6.65;5.57;;;;;;;;;;4982709;28;20026;-71
2022/07/08 00:03:19;;;;;;;6.47;5.10;;;;;;;;;;4982843;28;20031;-70
2022/07/08 00:05:45;;;;;;;6.88;5.03;;;;;;;;;;4985695;28;20531;-70
2022/07/08 00:08:10;;;;;;;8.07;4.97;;;;;;;;;;4986832;28;20855;-71
2022/07/08 00:10:36;;;;;;;6.70;5.30;;;;;;;;;;4987251;28;20549;-71
2022/07/08 00:13:01;;;;;;;4.93;4.32;;;;;;;;;;4986313;28;20042;-71
2022/07/08 00:15:27;;;;;;;5.90;5.22;;;;;;;;;;4986713;28;20069;-70
2022/07/08 00:17:52;;;;;;;6.78;4.82;;;;;;;;;;4986495;28;20042;-70
2022/07/08 00:20:19;;;;;;;5.97;4.38;;;;;;;;;;4987202;28;20056;-70
2022/07/08 00:22:44;;;;;;;9.02;4.30;;;;;;;;;;4985547;28;20030;-70
2022/07/08 00:25:10;;;;;;;4.78;4.38;;;;;;;;;;4986375;28;20034;-70
2022/07/08 00:27:35;;;;;;;5.72;4.03;;;;;;;;;;4986839;28;20049;-70
2022/07/08 00:30:01;;;;;;;6.25;4.07;;;;;;;;;;4986154;28;20113;-70
2022/07/08 00:32:26;;;;;;;6.97;4.63;;;;;;;;;;5001203;28;20068;-70
2022/07/08 00:34:52;;;;;;;7.75;5.13;;;;;;;;;;4985555;28;20113;-71
2022/07/08 00:37:18;;;;;;;8.15;4.47;;;;;;;;;;4984924;28;20034;-70
2022/07/08 00:39:43;;;;;;;4.90;4.40;;;;;;;;;;4986380;28;20042;-70
2022/07/08 00:42:09;;;;;;;6.47;4.97;;;;;;;;;;4986205;28;20104;-70
2022/07/08 00:44:34;;;;;;;7.90;4.13;;;;;;;;;;4985557;28;20034;-70
2022/07/08 00:47:00;;;;;;;6.18;4.88;;;;;;;;;;4985897;28;20541;-70
2022/07/08 00:49:25;;;;;;;5.63;4.10;;;;;;;;;;4985534;28;20569;-70
2022/07/08 00:51:51;;;;;;;4.22;3.72;;;;;;;;;;4986891;28;20034;-70
2022/07/08 00:54:19;;;;;;;4.53;4.13;;;;;;;;;;4985899;28;20042;-70
2022/07/08 00:56:45;;;;;;;11.25;4.20;;;;;;;;;;4985428;28;20431;-70
2022/07/08 00:59:11;;;;;;;5.32;4.72;;;;;;;;;;4985982;28;20125;-70
2022/07/08 01:01:37;;;;;;;11.35;4.85;;;;;;;;;;4985249;28;20050;-71
2022/07/08 01:04:03;;;;;;;4.93;4.35;;;;;;;;;;4986297;28;20038;-70
2022/07/08 01:06:29;;;;;;;8.07;4.55;;;;;;;;;;4984789;28;20041;-71
2022/07/08 01:08:55;;;;;;;7.85;4.95;;;;;;;;;;4985766;28;20080;-70
2022/07/08 01:11:20;;;;;;;5.97;5.28;;;;;;;;;;4985830;28;20062;-70
2022/07/08 01:13:47;;;;;;;9.18;5.32;;;;;;;;;;4984627;28;20419;-70
2022/07/08 01:16:12;;;;;;;6.60;5.38;;;;;;;;;;4984014;28;20030;-70
2022/07/08 01:18:39;;;;;;;7.47;5.32;;;;;;;;;;4983159;28;20484;-70
2022/07/08 01:21:05;;;;;;;8.32;6.10;;;;;;;;;;4985633;28;20037;-70
2022/07/08 01:23:30;;;;;;;7.93;5.13;;;;;;;;;;4983293;28;20038;-70
2022/07/08 01:25:58;;;;;;;7.07;4.60;;;;;;;;;;4985222;28;20113;-71
2022/07/08 01:28:23;;;;;;;6.55;4.57;;;;;;;;;;4985588;28;20042;-70
2022/07/08 01:30:49;;;;;;;5.05;4.43;;;;;;;;;;4986252;28;20451;-71
2022/07/08 01:33:14;;;;;;;8.20;4.57;;;;;;;;;;4985526;28;20129;-71
2022/07/08 01:35:39;;;;;;;8.20;4.90;;;;;;;;;;4985334;28;20550;-70
2022/07/08 01:38:05;;;;;;;8.52;5.20;;;;;;;;;;4986078;28;20100;-70
2022/07/08 01:40:30;;;;;;;8.13;4.88;;;;;;;;;;4984671;28;20074;-70
2022/07/08 01:42:55;;;;;;;8.00;4.35;;;;;;;;;;4980194;28;20046;-70
2022/07/08 01:45:21;;;;;;;5.60;4.43;;;;;;;;;;4982938;28;20096;-70
2022/07/08 01:47:46;;;;;;;8.18;4.78;;;;;;;;;;4985093;28;20495;-70
2022/07/08 01:50:12;;;;;;;8.73;4.35;;;;;;;;;;4984548;28;20140;-70
2022/07/08 01:52:37;;;;;;;8.60;4.70;;;;;;;;;;4984918;28;20518;-70
2022/07/08 01:55:04;;;;;;;4.82;4.30;;;;;;;;;;4984263;28;20092;-70
2022/07/08 01:57:30;;;;;;;6.10;4.20;;;;;;;;;;4985173;28;20042;-70
2022/07/08 01:59:55;;;;;;;4.47;4.07;;;;;;;;;;4984641;28;20114;-70
2022/07/08 02:02:21;;;;;;;8.50;4.90;;;;;;;;;;4984088;28;20046;-70
2022/07/08 02:04:47;;;;;;;5.90;4.30;;;;;;;;;;4984667;28;20046;-70
2022/07/08 02:07:13;;;;;;;8.43;4.18;;;;;;;;;;4983722;28;20038;-70
2022/07/08 02:09:40;;;;;;;7.60;4.43;;;;;;;;;;4985048;28;20502;-70
2022/07/08 02:12:18;;;;;;;7.20;4.75;;;;;;;;;;4984563;28;20034;-70
2022/07/08 02:14:46;;;;;;;6.45;4.18;;;;;;;;;;4984086;28;20034;-70
2022/07/08 02:17:11;;;;;;;5.18;4.07;;;;;;;;;;4985220;28;20053;-70
2022/07/08 02:19:36;;;;;;;4.75;3.92;;;;;;;;;;4984696;28;20438;-70
2022/07/08 02:22:03;;;;;;;4.03;3.67;;;;;;;;;;4984987;28;20514;-70
2022/07/08 02:24:28;;;;;;;5.15;4.03;;;;;;;;;;4983746;28;20038;-70
2022/07/08 02:26:54;;;;;;;5.13;4.60;;;;;;;;;;4984330;28;20046;-70
2022/07/08 02:29:19;;;;;;;8.20;4.28;;;;;;;;;;4984202;28;20045;-70
2022/07/08 02:31:45;;;;;;;5.05;3.53;;;;;;;;;;4982974;28;20112;-69
2022/07/08 02:34:10;;;;;;;6.40;4.10;;;;;;;;;;4983748;28;20126;-70
2022/07/08 02:36:36;;;;;;;7.15;2.80;;;;;;;;;;4983941;28;20073;-70
2022/07/08 02:39:01;;;;;;;3.85;2.00;;;;;;;;;;4983617;28;20446;-70
2022/07/08 02:41:27;;;;;;;3.22;2.03;;;;;;;;;;4984132;28;20509;-70
2022/07/08 02:43:52;;;;;;;10.70;2.40;;;;;;;;;;4983737;28;20483;-69
2022/07/08 02:46:17;;;;;;;6.75;2.20;;;;;;;;;;4982086;28;20971;-70
2022/07/08 02:48:43;;;;;;;6.07;2.40;;;;;;;;;;4983865;28;20041;-70
2022/07/08 02:51:08;;;;;;;7.07;2.42;;;;;;;;;;4984276;28;20248;-70
2022/07/08 02:53:34;;;;;;;7.25;2.10;;;;;;;;;;4983856;28;20543;-70
2022/07/08 02:55:59;;;;;;;6.10;2.60;;;;;;;;;;4983839;28;20038;-70
2022/07/08 02:58:24;;;;;;;4.00;2.45;;;;;;;;;;4983877;28;20046;-70
2022/07/08 03:00:50;;;;;;;3.75;2.60;;;;;;;;;;4984164;28;20557;-70
2022/07/08 03:03:15;;;;;;;7.10;2.40;;;;;;;;;;4984649;28;20068;-70
2022/07/08 03:05:41;;;;;;;4.15;2.35;;;;;;;;;;4983450;28;20514;-70
2022/07/08 03:08:06;;;;;;;5.70;2.88;;;;;;;;;;4982769;28;20103;-70
2022/07/08 03:10:32;;;;;;;8.95;2.08;;;;;;;;;;4984145;28;20060;-70
2022/07/08 03:12:58;;;;;;;4.10;2.05;;;;;;;;;;4984257;28;20491;-70
2022/07/08 03:15:25;;;;;;;8.75;2.35;;;;;;;;;;4984288;28;20072;-70
2022/07/08 03:17:51;;;;;;;5.80;2.00;;;;;;;;;;4984459;28;20121;-70
2022/07/08 03:20:17;;;;;;;5.80;2.30;;;;;;;;;;4982366;28;20053;-70
2022/07/08 03:22:43;;;;;;;5.47;1.73;;;;;;;;;;4984391;28;20038;-70
2022/07/08 03:25:08;;;;;;;6.32;1.65;;;;;;;;;;4984353;28;20090;-70
2022/07/08 03:27:34;;;;;;;6.78;1.98;;;;;;;;;;4984369;28;20117;-70
2022/07/08 03:29:59;;;;;;;3.75;1.50;;;;;;;;;;4983442;28;20038;-69
2022/07/08 03:32:26;;;;;;;5.50;1.70;;;;;;;;;;4982975;28;20031;-69
2022/07/08 03:34:51;;;;;;;5.70;1.50;;;;;;;;;;4984582;28;20121;-69
2022/07/08 03:37:17;;;;;;;9.18;1.98;;;;;;;;;;4984281;28;20125;-70
2022/07/08 03:39:42;;;;;;;8.23;3.67;;;;;;;;;;4987584;28;20487;-70
2022/07/08 03:42:08;;;;;;;7.25;1.75;;;;;;;;;;4986557;28;20740;-70
2022/07/08 03:44:33;;;;;;;5.30;1.58;;;;;;;;;;4986491;28;20046;-70
2022/07/08 03:46:59;;;;;;;11.77;2.00;;;;;;;;;;4988182;28;20049;-69
2022/07/08 03:49:24;;;;;;;4.43;1.58;;;;;;;;;;4988639;28;20042;-70
2022/07/08 03:51:50;;;;;;;9.65;2.22;;;;;;;;;;4984167;28;20085;-70
2022/07/08 03:54:15;;;;;;;7.75;1.63;;;;;;;;;;4987715;28;20046;-70
2022/07/08 03:56:41;;;;;;;7.93;1.60;;;;;;;;;;4987044;28;20039;-70
2022/07/08 03:59:06;;;;;;;5.25;1.70;;;;;;;;;;4988087;28;20069;-70
2022/07/08 04:01:32;;;;;;;5.82;1.73;;;;;;;;;;4984782;28;20144;-70
2022/07/08 04:03:57;;;;;;;5.97;1.60;;;;;;;;;;4983871;28;20045;-70
2022/07/08 04:06:23;;;;;;;6.60;1.50;;;;;;;;;;4986000;28;20038;-70
2022/07/08 04:08:48;;;;;;;9.93;1.40;;;;;;;;;;4985615;28;20069;-70
2022/07/08 04:11:13;;;;;;;11.32;1.65;;;;;;;;;;4985750;28;20035;-70
2022/07/08 04:13:39;;;;;;;8.15;1.70;;;;;;;;;;4985862;28;20066;-70
2022/07/08 04:16:08;;;;;;;6.30;1.45;;;;;;;;;;4984031;28;20053;-70
2022/07/08 04:18:33;;;;;;;6.97;1.95;;;;;;;;;;4986040;28;20156;-70
2022/07/08 04:20:59;;;;;;;6.78;1.55;;;;;;;;;;4986491;28;20034;-70
2022/07/08 04:23:24;;;;;;;4.82;1.48;;;;;;;;;;4986652;28;20121;-70
2022/07/08 04:25:50;;;;;;;10.98;1.70;;;;;;;;;;4986431;28;20120;-70
2022/07/08 04:28:16;;;;;;;6.18;2.00;;;;;;;;;;4986671;28;20030;-70
2022/07/08 04:30:42;;;;;;;3.15;1.45;;;;;;;;;;4986278;28;20129;-69
2022/07/08 04:33:08;;;;;;;6.13;1.90;;;;;;;;;;4987045;28;20517;-70
2022/07/08 04:35:35;;;;;;;3.28;1.35;;;;;;;;;;4985423;28;20081;-70
2022/07/08 04:38:00;;;;;;;10.65;1.95;;;;;;;;;;4986233;28;20080;-70
2022/07/08 04:40:26;;;;;;;8.10;1.38;;;;;;;;;;4986526;28;20046;-70
2022/07/08 04:42:52;;;;;;;6.53;1.70;;;;;;;;;;4985767;28;20112;-70
2022/07/08 04:45:17;;;;;;;9.10;2.00;;;;;;;;;;4985140;28;20066;-70
2022/07/08 04:47:43;;;;;;;9.82;1.90;;;;;;;;;;4981905;28;20152;-70
2022/07/08 04:50:09;;;;;;;10.88;1.83;;;;;;;;;;4983913;28;20030;-70
2022/07/08 04:52:34;;;;;;;8.70;1.77;;;;;;;;;;4983532;28;20380;-70
2022/07/08 04:55:00;;;;;;;11.70;1.90;;;;;;;;;;4982891;28;20112;-70
2022/07/08 04:57:25;;;;;;;13.27;1.67;;;;;;;;;;4982038;28;20042;-70
2022/07/08 04:59:51;;;;;;;7.78;1.80;;;;;;;;;;4982686;28;20927;-71
2022/07/08 05:02:16;;;;;;;4.03;2.08;;;;;;;;;;4982680;28;20654;-70
2022/07/08 05:04:42;;;;;;;12.75;2.20;;;;;;;;;;4981650;28;20030;-71
2022/07/08 05:07:07;;;;;;;2.85;1.30;;;;;;;;;;4979847;28;20034;-73
2022/07/08 05:09:32;;;;;;;6.45;1.77;;;;;;;;;;4979690;28;20035;-72
2022/07/08 05:11:58;;;;;;;10.73;1.33;;;;;;;;;;4983060;28;20487;-72
2022/07/08 05:14:24;;;;;;;8.30;1.40;;;;;;;;;;4982992;28;20050;-72
2022/07/08 05:16:49;;;;;;;3.70;1.10;;;;;;;;;;4983333;28;20076;-71
2022/07/08 05:19:14;;;;;;;7.63;1.10;;;;;;;;;;4981664;28;20061;-71
2022/07/08 05:21:40;;;;;;;4.88;1.25;;;;;;;;;;4980732;28;20034;-71
2022/07/08 05:24:06;;;;;;;4.97;1.35;;;;;;;;;;4982372;28;20169;-71
2022/07/08 05:26:32;;;;;;;4.60;1.23;;;;;;;;;;4980168;28;20167;-71
2022/07/08 05:28:59;;;;;;;6.00;1.40;;;;;;;;;;4982064;28;20543;-71
2022/07/08 05:31:24;;;;;;;6.65;1.50;;;;;;;;;;4981533;28;20030;-71
2022/07/08 05:33:49;;;;;;;3.58;1.33;;;;;;;;;;4982630;28;20528;-71
2022/07/08 05:36:15;;;;;;;5.32;1.13;;;;;;;;;;4983197;28;20038;-71
2022/07/08 05:38:40;;;;;;;4.40;1.52;;;;;;;;;;4984458;28;21087;-71
2022/07/08 05:41:06;;;;;;;4.65;1.30;;;;;;;;;;4983685;28;20507;-71
2022/07/08 05:43:31;;;;;;;3.17;1.13;;;;;;;;;;4983873;28;20080;-71
2022/07/08 05:45:57;;;;;;;4.07;1.00;;;;;;;;;;4983802;28;20046;-71
2022/07/08 05:48:22;;;;;;;6.65;1.65;;;;;;;;;;4984506;28;20080;-71
2022/07/08 05:50:48;;;;;;;5.40;1.08;;;;;;;;;;4984167;28;20368;-71
2022/07/08 05:53:17;;;;;;;5.63;1.27;;;;;;;;;;4982888;28;20052;-71
2022/07/08 05:55:43;;;;;;;3.10;1.05;;;;;;;;;;4983575;28;20042;-71
2022/07/08 05:58:09;;;;;;;2.55;1.00;;;;;;;;;;4984155;28;20658;-71
2022/07/08 06:00:34;;;;;;;2.78;1.20;;;;;;;;;;4982027;28;20034;-71
2022/07/08 06:02:59;;;;;;;8.45;1.50;;;;;;;;;;4983073;28;20050;-71
2022/07/08 06:05:25;;;;;;;7.20;1.20;;;;;;;;;;4982823;28;20042;-71
2022/07/08 06:07:50;;;;;;;3.47;1.13;;;;;;;;;;4979210;28;20048;-73
2022/07/08 06:10:16;;;;;;;4.47;0.98;;;;;;;;;;4982220;28;20464;-73
2022/07/08 06:12:41;;;;;;;6.93;1.08;;;;;;;;;;4982562;28;20029;-72
2022/07/08 06:15:07;;;;;;;6.65;1.25;;;;;;;;;;4980086;28;20050;-72
2022/07/08 06:17:35;;;;;;;7.38;1.00;;;;;;;;;;4982164;28;20104;-73
2022/07/08 06:20:01;;;;;;;6.97;1.60;;;;;;;;;;4980716;28;20042;-73
2022/07/08 06:22:27;;;;;;;6.15;1.23;;;;;;;;;;4980845;28;20053;-74
2022/07/08 06:24:55;;;;;;;4.00;1.02;;;;;;;;;;4981747;28;20037;-73
2022/07/08 06:27:20;;;;;;;2.53;0.98;;;;;;;;;;4965405;28;20039;-72
2022/07/08 06:29:46;;;;;;;2.42;0.80;;;;;;;;;;4983392;28;20034;-72
2022/07/08 06:32:11;;;;;;;5.13;1.30;;;;;;;;;;4970495;28;20668;-73
2022/07/08 06:34:37;;;;;;;4.53;1.02;;;;;;;;;;4981104;28;20046;-72
2022/07/08 06:37:02;;;;;;;5.10;1.02;;;;;;;;;;4981447;28;20506;-72
2022/07/08 06:39:28;;;;;;;3.63;1.17;;;;;;;;;;4981823;28;20038;-72
2022/07/08 06:41:53;;;;;;;4.70;0.93;;;;;;;;;;4983582;28;20057;-72
2022/07/08 06:44:19;;;;;;;7.10;1.33;;;;;;;;;;4984077;28;20042;-73
2022/07/08 06:46:44;;;;;;;6.82;1.35;;;;;;;;;;4983428;28;20052;-72
2022/07/08 06:49:10;;;;;;;4.55;1.10;;;;;;;;;;4981464;28;20980;-73
2022/07/08 06:51:35;;;;;;;4.72;1.13;;;;;;;;;;4982593;28;20403;-73
2022/07/08 06:56:44;;;;;;;2.33;1.00;;;;;;;;;;4980305;28;20045;-73
2022/07/08 06:59:10;;;;;;;5.40;0.98;;;;;;;;;;4979968;28;20038;-73
2022/07/08 07:01:35;;;;;;;6.43;1.35;;;;;;;;;;4982004;28;20034;-74
2022/07/08 07:04:01;;;;;;;3.67;1.10;;;;;;;;;;4981742;28;20404;-74
2022/07/08 07:06:27;;;;;;;3.50;1.08;;;;;;;;;;4981517;28;20030;-72
2022/07/08 07:08:52;;;;;;;5.05;1.42;;;;;;;;;;4982408;28;20045;-70
2022/07/08 07:11:18;;;;;;;3.70;0.85;;;;;;;;;;4981483;28;20054;-73
2022/07/08 07:13:43;;;;;;;2.05;0.68;;;;;;;;;;4963783;28;20030;-73
2022/07/08 07:16:08;;;;;;;3.65;1.20;;;;;;;;;;4980466;28;20450;-74
2022/07/08 07:18:34;;;;;;;7.15;1.92;;;;;;;;;;4982442;28;20038;-74
2022/07/08 07:20:59;;;;;;;4.72;1.00;;;;;;;;;;4981597;28;20092;-74
2022/07/08 07:23:25;;;;;;;4.80;1.20;;;;;;;;;;4982423;28;20399;-73
2022/07/08 07:25:50;;;;;;;4.63;1.45;;;;;;;;;;4979800;28;20034;-73
2022/07/08 07:28:16;;;;;;;7.93;1.13;;;;;;;;;;4965300;28;20041;-74
2022/07/08 07:30:41;;;;;;;6.50;1.13;;;;;;;;;;4982529;28;20342;-72
2022/07/08 07:33:06;;;;;;;2.70;0.90;;;;;;;;;;4981362;28;20383;-73
2022/07/08 07:35:32;;;;;;;1.77;0.80;;;;;;;;;;4979835;28;20133;-73
2022/07/08 07:37:57;;;;;;;6.63;1.08;;;;;;;;;;4981061;28;20112;-73
2022/07/08 07:40:23;;;;;;;5.60;1.00;;;;;;;;;;4981169;28;20188;-73
2022/07/08 07:42:48;;;;;;;2.60;1.00;;;;;;;;;;4980867;28;20041;-74
2022/07/08 07:45:13;;;;;;;6.07;1.10;;;;;;;;;;4987678;28;20038;-72
2022/07/08 07:47:39;;;;;;;2.88;0.93;;;;;;;;;;4981649;28;20045;-74
2022/07/08 07:50:08;;;;;;;5.78;1.00;;;;;;;;;;4982058;28;20041;-74
2022/07/08 07:52:33;;;;;;;4.88;1.55;;;;;;;;;;4981942;28;20045;-74
2022/07/08 07:54:59;;;;;;;5.03;1.00;;;;;;;;;;4978737;28;20034;-71
2022/07/08 07:57:24;;;;;;;6.07;1.00;;;;;;;;;;4980978;28;20034;-74
2022/07/08 07:59:50;;;;;;;4.80;1.27;;;;;;;;;;4979704;28;20049;-74
2022/07/08 08:02:15;;;;;;;4.03;1.00;;;;;;;;;;4980794;28;20046;-77
2022/07/08 08:04:41;;;;;;;3.78;0.90;;;;;;;;;;4967703;28;20026;-79
2022/07/08 08:07:07;;;;;;;5.13;1.00;;;;;;;;;;4989461;28;20061;-79
2022/07/08 08:09:32;;;;;;;5.30;1.13;;;;;;;;;;4981291;28;20050;-75
2022/07/08 08:11:58;;;;;;;4.47;0.85;;;;;;;;;;4980098;28;20498;-75
2022/07/08 08:14:23;;;;;;;4.00;0.80;;;;;;;;;;4979668;28;20034;-74
2022/07/08 08:16:48;;;;;;;1.48;0.80;;;;;;;;;;4982082;28;20042;-77
2022/07/08 08:19:14;;;;;;;3.85;0.90;;;;;;;;;;4981260;28;20037;-75
2022/07/08 08:21:39;;;;;;;2.00;0.80;;;;;;;;;;4981336;28;20484;-73
2022/07/08 08:24:05;;;;;;;2.55;0.90;;;;;;;;;;4981033;28;20037;-75
2022/07/08 08:26:30;;;;;;;3.60;1.02;;;;;;;;;;4981830;28;20046;-75
2022/07/08 08:28:56;;;;;;;4.28;1.30;;;;;;;;;;4984415;28;20026;-77
2022/07/08 08:31:21;;;;;;;4.88;1.17;;;;;;;;;;4967985;28;20034;-77
2022/07/08 08:33:47;;;;;;;2.97;1.08;;;;;;;;;;4971000;28;20534;-76
2022/07/08 08:36:12;;;;;;;5.97;1.10;;;;;;;;;;4964200;28;20038;-76
2022/07/08 08:38:37;;;;;;;5.13;1.45;;;;;;;;;;4982323;28;20030;-76
2022/07/08 08:41:04;;;;;;;8.02;1.55;;;;;;;;;;4985868;28;20141;-77
2022/07/08 08:43:29;;;;;;;5.03;1.35;;;;;;;;;;4984136;28;20038;-75
2022/07/08 08:45:55;;;;;;;3.25;1.13;;;;;;;;;;4982899;28;20034;-77
2022/07/08 08:48:25;;;;;;;4.72;0.98;;;;;;;;;;4982924;28;20117;-75
2022/07/08 08:50:55;;;;;;;2.90;1.10;;;;;;;;;;4983160;28;20129;-76
2022/07/08 08:53:27;;;;;;;3.55;0.95;;;;;;;;;;4983981;28;20506;-76
2022/07/08 08:55:54;;;;;;;3.67;1.33;;;;;;;;;;4984928;28;20038;-77
2022/07/08 08:58:20;;;;;;;9.10;1.40;;;;;;;;;;4966733;28;20030;-76
2022/07/08 09:00:46;;;;;;;6.38;1.20;;;;;;;;;;4983725;28;20559;-77
2022/07/08 09:03:12;;;;;;;6.03;1.20;;;;;;;;;;4985573;28;20045;-75
2022/07/08 09:05:37;;;;;;;4.90;1.20;;;;;;;;;;4984486;28;20049;-73
2022/07/08 09:08:03;;;;;;;3.75;1.20;;;;;;;;;;4984066;28;20030;-75
2022/07/08 09:10:28;;;;;;;2.58;1.00;;;;;;;;;;4966893;28;20559;-75
2022/07/08 09:13:01;;;;;;;5.47;1.08;;;;;;;;;;4984518;28;20034;-75
2022/07/08 09:15:41;;;;;;;5.07;1.35;;;;;;;;;;4983797;28;20826;-73
2022/07/08 09:18:12;;;;;;;10.43;1.80;;;;;;;;;;4966616;28;20072;-74
2022/07/08 09:20:44;;;;;;;3.95;1.00;;;;;;;;;;4982428;28;20383;-71
2022/07/08 09:23:19;;;;;;;5.45;1.58;;;;;;;;;;4987953;28;20041;-71
2022/07/08 09:25:47;;;;;;;9.00;1.20;;;;;;;;;;4984508;28;20035;-71
2022/07/08 09:28:13;;;;;;;4.13;1.15;;;;;;;;;;4983569;28;20910;-71
2022/07/08 09:30:39;;;;;;;10.00;1.55;;;;;;;;;;4983452;28;20062;-71
2022/07/08 09:33:04;;;;;;;8.23;1.65;;;;;;;;;;4984496;28;20034;-71
2022/07/08 09:35:38;;;;;;;7.93;1.50;;;;;;;;;;4984984;28;20054;-71
2022/07/08 09:38:20;;;;;;;4.00;1.20;;;;;;;;;;4984418;28;20035;-73
2022/07/08 09:41:09;;;;;;;4.20;1.25;;;;;;;;;;4963933;28;20492;-72
2022/07/08 09:43:45;;;;;;;6.25;1.38;;;;;;;;;;4983207;28;20038;-72
2022/07/08 09:46:11;;;;;;;2.90;1.30;;;;;;;;;;4983779;28;20453;-72
2022/07/08 09:48:36;;;;;;;4.57;1.48;;;;;;;;;;4982879;28;20037;-73
2022/07/08 09:51:10;;;;;;;1.98;1.02;;;;;;;;;;4983226;28;20026;-72
2022/07/08 09:53:38;;;;;;;4.47;1.38;;;;;;;;;;4983556;28;20038;-72
2022/07/08 09:56:04;;;;;;;5.85;1.27;;;;;;;;;;4980812;28;20045;-72
2022/07/08 09:58:32;;;;;;;3.47;1.23;;;;;;;;;;4981245;28;20064;-71
2022/07/08 10:01:00;;;;;;;4.32;1.38;;;;;;;;;;4983000;28;20046;-71
2022/07/08 10:03:25;;;;;;;5.82;1.42;;;;;;;;;;4982162;28;20495;-70
2022/07/08 10:05:51;;;;;;;6.53;1.40;;;;;;;;;;4981770;28;20038;-75
2022/07/08 10:08:18;;;;;;;4.97;1.10;;;;;;;;;;4981913;28;20030;-76
2022/07/08 10:10:48;;;;;;;4.07;1.30;;;;;;;;;;4982527;28;20042;-70
2022/07/08 10:13:15;;;;;;;6.93;1.33;;;;;;;;;;4982267;28;20112;-71
2022/07/08 10:15:42;;;;;;;7.40;1.50;;;;;;;;;;4982525;28;20450;-74
2022/07/08 10:18:25;;;;;;;5.85;1.13;;;;;;;;;;4987966;28;20085;-73
2022/07/08 10:20:57;;;;;;;4.10;1.33;;;;;;;;;;4987617;28;20038;-71
2022/07/08 10:23:34;;;;;;;4.10;1.20;;;;;;;;;;4985654;28;20117;-70
2022/07/08 10:26:02;;;;;;;6.65;1.65;;;;;;;;;;4986354;28;20041;-72
2022/07/08 10:28:44;;;;;;;4.15;1.45;;;;;;;;;;4980064;28;20157;-73
2022/07/08 10:31:19;;;;;;;;;;;;;;;;;;4985144;28;20460;-72
2022/07/08 10:33:45;;;;;;;5.60;1.58;;;;;;;;;;4984272;28;19917;-72
2022/07/08 10:36:11;;;;;;;4.20;1.40;;;;;;;;;;4980882;28;20129;-71
2022/07/08 10:38:41;;;;;;;3.90;1.27;;;;;;;;;;4981944;28;20084;-72
2022/07/08 10:41:08;;;;;;;5.32;1.25;;;;;;;;;;4982266;28;20034;-72
2022/07/08 10:43:35;;;;;;;6.57;1.48;;;;;;;;;;4957846;28;20034;-72
2022/07/08 10:46:01;;;;;;;5.60;1.42;;;;;;;;;;4983140;28;20018;-72
2022/07/08 10:48:28;;;;;;;10.65;1.50;;;;;;;;;;4982645;28;20034;-73
2022/07/08 10:50:54;;;;;;;4.13;1.80;;;;;;;;;;4988027;28;20056;-72
2022/07/08 10:53:20;;;;;;;7.13;1.40;;;;;;;;;;4982149;28;20494;-71
2022/07/08 10:55:47;;;;;;;7.82;1.70;;;;;;;;;;4980873;28;20038;-73
2022/07/08 10:58:12;;;;;;;5.22;1.40;;;;;;;;;;4995071;28;20057;-73
2022/07/08 11:00:39;;;;;;;6.43;1.60;;;;;;;;;;4982776;28;20132;-73
2022/07/08 11:03:08;;;;;;;3.13;1.20;;;;;;;;;;4989449;28;20057;-71
2022/07/08 11:05:42;;;;;;;6.18;1.50;;;;;;;;;;4982168;28;20034;-71
2022/07/08 11:08:19;;;;;;;5.78;1.33;;;;;;;;;;4982489;28;20038;-72
2022/07/08 11:10:49;;;;;;;2.92;1.30;;;;;;;;;;4981131;28;20026;-72
2022/07/08 11:13:15;;;;;;;3.47;1.25;;;;;;;;;;4982509;28;20042;-72
2022/07/08 11:15:40;;;;;;;7.35;1.58;;;;;;;;;;4982272;28;20050;-71
2022/07/08 11:18:06;;;;;;;8.00;1.25;;;;;;;;;;4982266;28;20038;-72
2022/07/08 11:20:32;;;;;;;5.03;1.20;;;;;;;;;;4980055;28;20121;-72
2022/07/08 11:23:03;;;;;;;7.20;1.50;;;;;;;;;;4980152;28;20068;-71
2022/07/08 11:25:30;;;;;;;5.53;1.23;;;;;;;;;;4966667;28;20503;-72
2022/07/08 11:27:57;;;;;;;5.05;1.20;;;;;;;;;;4980249;28;20411;-72
2022/07/08 11:30:29;;;;;;;4.25;1.20;;;;;;;;;;4963332;28;20034;-74
2022/07/08 11:32:55;;;;;;;4.20;1.40;;;;;;;;;;4978380;28;20054;-74
2022/07/08 11:35:23;;;;;;;5.82;1.60;;;;;;;;;;4979087;28;20046;-73
2022/07/08 11:37:49;;;;;;;7.57;1.67;;;;;;;;;;4979894;28;20099;-73
2022/07/08 11:40:18;;;;;;;4.97;1.35;;;;;;;;;;4981564;28;20065;-74
2022/07/08 11:42:43;;;;;;;10.18;1.60;;;;;;;;;;4981029;28;20051;-74
2022/07/08 11:45:11;;;;;;;3.38;1.20;;;;;;;;;;4980606;28;20045;-73
2022/07/08 11:47:36;;;;;;;5.55;1.50;;;;;;;;;;4981300;28;20045;-73
2022/07/08 11:50:04;;;;;;;2.45;1.00;;;;;;;;;;4981497;28;20038;-73
2022/07/08 11:52:29;;;;;;;4.07;1.42;;;;;;;;;;4980525;28;20045;-73
2022/07/08 11:54:57;;;;;;;6.78;1.35;;;;;;;;;;4980369;28;20034;-72
2022/07/08 11:57:22;;;;;;;2.58;1.13;;;;;;;;;;4981102;28;20074;-72
2022/07/08 11:59:49;;;;;;;2.78;1.13;;;;;;;;;;4979945;28;20120;-71
2022/07/08 12:02:18;;;;;;;4.88;1.05;;;;;;;;;;4984777;28;20046;-72
2022/07/08 12:04:48;;;;;;;3.90;1.30;;;;;;;;;;4983359;28;20116;-71
2022/07/08 12:07:28;;;;;;;3.17;1.20;;;;;;;;;;4982072;28;20793;-70
2022/07/08 12:09:53;;;;;;;2.00;1.02;;;;;;;;;;4983634;28;20390;-70
2022/07/08 12:12:21;;;;;;;3.53;1.13;;;;;;;;;;4989149;28;20034;-70
2022/07/08 12:14:47;;;;;;;4.00;1.20;;;;;;;;;;4982327;28;20083;-70
2022/07/08 12:17:22;;;;;;;3.97;1.17;;;;;;;;;;4983103;28;20464;-70
2022/07/08 12:19:47;;;;;;;4.07;1.60;;;;;;;;;;4984243;28;20854;-70
2022/07/08 12:22:13;;;;;;;7.30;2.10;;;;;;;;;;4984958;28;20130;-70
2022/07/08 12:24:40;;;;;;;2.92;1.40;;;;;;;;;;4983663;28;20062;-72
2022/07/08 12:27:10;;;;;;;7.63;1.50;;;;;;;;;;4983449;28;20133;-71
2022/07/08 12:29:38;;;;;;;10.82;1.90;;;;;;;;;;4982959;28;20046;-71
2022/07/08 12:32:08;;;;;;;6.20;1.48;;;;;;;;;;4977838;28;20875;-72
2022/07/08 12:34:34;;;;;;;4.35;1.45;;;;;;;;;;4980954;28;20389;-72
2022/07/08 12:37:16;;;;;;;5.63;1.10;;;;;;;;;;4981129;28;20117;-72
2022/07/08 12:39:42;;;;;;;3.72;1.10;;;;;;;;;;4981340;28;20113;-70
2022/07/08 12:42:08;;;;;;;4.32;1.33;;;;;;;;;;4979508;28;20149;-73
2022/07/08 12:44:35;;;;;;;5.22;1.10;;;;;;;;;;4980481;28;20034;-73
2022/07/08 12:47:03;;;;;;;5.15;1.27;;;;;;;;;;4978816;28;20116;-73
2022/07/08 12:49:30;;;;;;;2.28;1.20;;;;;;;;;;4978514;28;20851;-72
2022/07/08 12:51:57;;;;;;;5.10;1.45;;;;;;;;;;4981044;28;20479;-72
2022/07/08 12:54:23;;;;;;;1.98;1.02;;;;;;;;;;4965440;28;20054;-73
2022/07/08 12:56:50;;;;;;;2.63;1.30;;;;;;;;;;4985023;28;20042;-70
2022/07/08 12:59:15;;;;;;;5.35;1.08;;;;;;;;;;4984514;28;20129;-72
2022/07/08 13:01:41;;;;;;;3.10;1.20;;;;;;;;;;4984864;28;20161;-70
2022/07/08 13:04:07;;;;;;;8.35;1.48;;;;;;;;;;4977281;28;20057;-72
2022/07/08 13:06:33;;;;;;;2.42;1.10;;;;;;;;;;4980156;28;20035;-73
2022/07/08 13:08:58;;;;;;;2.45;1.20;;;;;;;;;;4982520;28;20685;-72
2022/07/08 13:11:24;;;;;;;4.57;1.20;;;;;;;;;;4981000;28;20162;-75
2022/07/08 13:13:49;;;;;;;6.60;1.65;;;;;;;;;;4970700;28;20125;-73
2022/07/08 13:16:15;;;;;;;5.78;1.60;;;;;;;;;;4982341;28;20034;-73
2022/07/08 13:18:41;;;;;;;6.63;1.58;;;;;;;;;;4982957;28;20873;-74
2022/07/08 13:21:06;;;;;;;3.35;1.35;;;;;;;;;;4980006;28;20042;-74
2022/07/08 13:23:32;;;;;;;6.10;1.58;;;;;;;;;;4979986;28;20050;-74
2022/07/08 13:25:57;;;;;;;6.32;1.90;;;;;;;;;;4979618;28;20038;-72
2022/07/08 13:28:23;;;;;;;4.70;1.13;;;;;;;;;;4963367;28;20376;-73
2022/07/08 13:30:51;;;;;;;4.05;1.20;;;;;;;;;;4981215;28;20122;-72
2022/07/08 13:33:16;;;;;;;3.20;1.17;;;;;;;;;;4980582;28;20054;-74
2022/07/08 13:35:42;;;;;;;5.60;1.52;;;;;;;;;;4981955;28;20042;-72
2022/07/08 13:38:07;;;;;;;3.67;1.13;;;;;;;;;;4982478;28;20038;-72
2022/07/08 13:40:33;;;;;;;2.45;1.05;;;;;;;;;;4981510;28;20060;-73
2022/07/08 13:42:58;;;;;;;4.72;1.20;;;;;;;;;;4982635;28;20038;-74
2022/07/08 13:45:24;;;;;;;5.43;1.40;;;;;;;;;;4981161;28;20042;-72
2022/07/08 13:47:50;;;;;;;4.93;1.33;;;;;;;;;;4978128;28;20092;-74
2022/07/08 13:50:16;;;;;;;3.22;1.55;;;;;;;;;;4965766;28;20100;-71
2022/07/08 13:52:42;;;;;;;3.72;1.33;;;;;;;;;;4982075;28;20038;-72
2022/07/08 13:55:09;;;;;;;4.07;1.40;;;;;;;;;;4978608;28;20030;-72
2022/07/08 13:57:34;;;;;;;3.47;1.13;;;;;;;;;;4980687;28;20084;-73
2022/07/08 14:00:00;;;;;;;3.88;1.33;;;;;;;;;;4981077;28;20034;-73
2022/07/08 14:02:26;;;;;;;5.57;1.67;;;;;;;;;;4963181;28;21146;-72
2022/07/08 14:04:52;;;;;;;4.07;1.05;;;;;;;;;;4980540;28;20034;-73
2022/07/08 14:07:17;;;;;;;2.83;1.10;;;;;;;;;;4979998;28;20079;-72
2022/07/08 14:09:44;;;;;;;4.82;1.25;;;;;;;;;;4979728;28;20479;-74
2022/07/08 14:12:10;;;;;;;7.28;1.30;;;;;;;;;;4996364;28;20399;-74
2022/07/08 14:14:36;;;;;;;4.93;1.40;;;;;;;;;;4981849;28;20727;-73
2022/07/08 14:17:10;;;;;;;4.80;1.60;;;;;;;;;;4979894;28;20407;-73
2022/07/08 14:19:35;;;;;;;2.28;1.17;;;;;;;;;;4982682;28;20097;-71
2022/07/08 14:22:01;;;;;;;3.80;1.20;;;;;;;;;;4982127;28;20061;-72
2022/07/08 14:24:26;;;;;;;4.20;1.23;;;;;;;;;;4981539;28;20132;-74
2022/07/08 14:26:52;;;;;;;4.45;1.23;;;;;;;;;;4981938;28;20038;-71
2022/07/08 14:29:18;;;;;;;7.95;1.20;;;;;;;;;;4980456;28;20046;-71
2022/07/08 14:31:43;;;;;;;9.18;1.42;;;;;;;;;;4982450;28;20049;-72
2022/07/08 14:34:09;;;;;;;2.70;1.08;;;;;;;;;;4982422;28;20045;-71
2022/07/08 14:36:34;;;;;;;3.63;1.50;;;;;;;;;;4982125;28;20053;-72
2022/07/08 14:38:59;;;;;;;2.88;1.13;;;;;;;;;;4980635;28;20042;-71
2022/07/08 14:41:25;;;;;;;3.13;0.90;;;;;;;;;;4980935;28;20038;-71